Time;durP1;ratioP1;P1;durP2;ratioP2;P2;SDS_P1;SDS_P2;PMS_P1;PMS_P2;Temp;Humidity;BMP_temperature;BMP_pressure;BME280_temperature;BME280_humidity;BME280_pressure;Samples;Min_cycle;Max_cycle;Signal;HPM_P1;HPM_P2
2024/04/27 00:00:18;;;;;;;6.30;3.75;;;;;;;11.24;70.80;99422.34;6260091;22;19995;-92
2024/04/27 00:02:47;;;;;;;4.60;3.55;;;;;;;11.23;71.00;99429.63;6300731;22;20067;-93
2024/04/27 00:05:13;;;;;;;5.07;3.67;;;;;;;11.19;70.99;99419.69;6261323;22;20007;-92
2024/04/27 00:07:38;;;;;;;4.45;3.53;;;;;;;11.23;70.96;99432.34;6299406;22;19992;-91
2024/04/27 00:10:05;;;;;;;5.22;3.40;;;;;;;11.26;70.51;99430.97;6260342;22;20283;-93
2024/04/27 00:12:31;;;;;;;5.35;3.05;;;;;;;11.26;70.61;99422.88;6298929;22;20034;-94
2024/04/27 00:14:57;;;;;;;6.45;3.72;;;;;;;11.36;70.90;99435.56;6260960;22;20092;-93
2024/04/27 00:17:22;;;;;;;7.47;3.85;;;;;;;11.36;70.11;99411.28;6260830;22;20007;-93
2024/04/27 00:19:48;;;;;;;7.55;3.50;;;;;;;11.50;69.62;99421.22;6258156;22;20075;-93
2024/04/27 00:22:14;;;;;;;4.05;3.00;;;;;;;11.62;68.48;99430.91;6260407;22;20074;-90
2024/04/27 00:24:44;;;;;;;4.72;2.80;;;;;;;11.49;67.85;99413.41;6262062;22;19998;-93
2024/04/27 00:27:10;;;;;;;3.75;2.70;;;;;;;11.75;66.58;99443.81;6264291;22;20006;-93
2024/04/27 00:29:38;;;;;;;3.05;2.60;;;;;;;11.68;66.20;99413.63;6260678;22;20007;-94
2024/04/27 00:32:04;;;;;;;6.90;2.65;;;;;;;11.74;66.32;99420.63;6263234;22;19992;-92
2024/04/27 00:34:32;;;;;;;3.17;2.60;;;;;;;11.69;65.91;99426.03;6261696;22;20314;-92
2024/04/27 00:36:58;;;;;;;7.85;3.05;;;;;;;11.81;67.35;99444.63;6260596;22;20003;-92
2024/04/27 00:39:23;;;;;;;7.10;3.00;;;;;;;11.64;67.42;99421.47;6260712;22;20002;-93
2024/04/27 00:41:50;;;;;;;7.22;3.90;;;;;;;11.80;68.47;99445.69;6260993;22;19995;-94
2024/04/27 00:44:16;;;;;;;5.10;3.33;;;;;;;11.60;68.70;99430.38;6301175;22;20043;-92
2024/04/27 00:46:42;;;;;;;3.55;2.90;;;;;;;11.69;68.52;99445.72;6261318;22;20001;-92
2024/04/27 00:49:07;;;;;;;4.57;3.20;;;;;;;11.62;69.13;99436.28;6300160;22;20006;-92
2024/04/27 00:51:36;;;;;;;5.50;3.42;;;;;;;11.68;69.13;99448.69;6261630;22;19991;-92
2024/04/27 00:54:04;;;;;;;4.40;3.40;;;;;;;11.58;68.75;99429.81;6263112;22;19999;-93
2024/04/27 00:56:30;;;;;;;4.97;2.97;;;;;;;11.67;69.95;99465.97;6263827;22;20006;-93
2024/04/27 00:58:56;;;;;;;9.40;3.13;;;;;;;11.48;70.30;99450.34;6301338;22;20287;-92
2024/04/27 01:01:21;;;;;;;5.20;2.90;;;;;;;11.56;69.36;99445.47;6261508;22;19999;-91
2024/04/27 01:03:47;;;;;;;4.65;2.92;;;;;;;11.50;69.01;99439.31;6261743;22;19992;-92
2024/04/27 01:06:13;;;;;;;4.85;3.20;;;;;;;11.51;68.92;99436.31;6300087;22;19991;-92
2024/04/27 01:08:51;;;;;;;5.82;3.08;;;;;;;11.69;68.92;99453.00;6260544;22;19987;-93
2024/04/27 01:11:17;;;;;;;5.30;3.38;;;;;;;11.55;68.45;99452.75;6260242;22;19995;-92
2024/04/27 01:13:43;;;;;;;6.15;3.63;;;;;;;11.44;68.44;99429.59;6300376;22;20015;-93
2024/04/27 01:16:09;;;;;;;4.63;3.03;;;;;;;11.56;68.70;99445.47;6259757;22;20295;-93
2024/04/27 01:18:40;;;;;;;3.00;2.55;;;;;;;11.61;68.19;99448.19;6260257;22;20002;-93
2024/04/27 01:21:06;;;;;;;4.10;3.30;;;;;;;11.48;68.40;99427.97;6300500;22;19991;-93
2024/04/27 01:23:32;;;;;;;5.45;3.63;;;;;;;11.65;68.60;99457.34;6259950;22;19995;-92
2024/04/27 01:25:57;;;;;;;8.23;3.70;;;;;;;11.52;68.40;99431.75;6260213;22;19992;-93
2024/04/27 01:28:23;;;;;;;5.45;3.60;;;;;;;11.67;68.42;99444.38;6260137;22;19996;-93
2024/04/27 01:30:48;;;;;;;5.03;3.67;;;;;;;11.67;68.31;99441.69;6260953;22;19995;-93
2024/04/27 01:33:16;;;;;;;6.60;3.90;;;;;;;11.42;68.85;99408.31;6260234;22;19991;-93
2024/04/27 01:35:41;;;;;;;4.68;3.60;;;;;;;11.52;68.73;99427.16;6260398;22;19995;-93
2024/04/27 01:38:07;;;;;;;4.47;3.50;;;;;;;11.40;68.68;99417.75;6260670;22;19999;-93
2024/04/27 01:40:35;;;;;;;4.68;3.08;;;;;;;11.42;68.41;99410.19;6259293;22;19999;-93
2024/04/27 01:43:04;;;;;;;5.72;3.35;;;;;;;11.52;67.93;99420.97;6300874;22;20006;-94
2024/04/27 01:45:32;;;;;;;4.38;2.75;;;;;;;11.56;68.11;99427.44;6261845;22;20027;-94
2024/04/27 01:47:58;;;;;;;5.05;3.45;;;;;;;11.64;68.13;99440.34;6300730;22;20015;-93
2024/04/27 01:50:24;;;;;;;5.70;3.92;;;;;;;11.46;68.52;99409.38;6301013;22;20010;-93
2024/04/27 01:52:50;;;;;;;5.43;3.42;;;;;;;11.66;68.21;99413.09;6260518;22;20269;-95
2024/04/27 01:55:16;;;;;;;3.92;3.25;;;;;;;11.78;69.00;99454.06;6300410;22;20070;-94
2024/04/27 01:57:42;;;;;;;5.47;3.10;;;;;;;11.70;68.47;99430.34;6261283;22;19999;-94
2024/04/27 02:00:08;;;;;;;3.40;3.05;;;;;;;11.92;67.67;99433.53;6261263;22;20414;-93
2024/04/27 02:02:34;;;;;;;7.15;3.08;;;;;;;11.92;67.55;99438.13;6260859;22;20307;-94
2024/04/27 02:05:00;;;;;;;5.25;3.58;;;;;;;11.89;67.38;99422.47;6260280;22;20039;-94
2024/04/27 02:07:25;;;;;;;4.63;3.15;;;;;;;11.88;67.99;99424.38;6260132;22;19991;-93
2024/04/27 02:09:51;;;;;;;4.03;2.90;;;;;;;11.83;67.94;99420.84;6259801;22;20298;-94
2024/04/27 02:12:17;;;;;;;4.03;3.20;;;;;;;11.79;67.68;99415.22;6260506;22;20388;-94
2024/04/27 02:14:44;;;;;;;4.20;3.42;;;;;;;11.85;68.70;99426.78;6260051;22;19999;-93
2024/04/27 02:19:55;;;;;;;4.07;3.03;;;;;;;11.86;68.83;99412.22;6314695;22;20044;-93
2024/04/27 02:22:20;;;;;;;4.05;3.17;;;;;;;11.89;68.77;99419.78;6260370;22;20010;-94
2024/04/27 02:24:46;;;;;;;5.68;4.22;;;;;;;12.03;68.40;99431.59;6299582;22;20052;-93
2024/04/27 02:27:12;;;;;;;5.28;3.38;;;;;;;11.96;69.25;99431.09;6300655;22;20006;-95
2024/04/27 02:29:37;;;;;;;4.38;3.10;;;;;;;12.03;68.46;99428.91;6260314;22;20002;-95
2024/04/27 02:32:03;;;;;;;4.28;3.30;;;;;;;12.04;69.72;99441.31;6299887;22;19995;-95
2024/04/27 02:34:29;;;;;;;4.68;3.10;;;;;;;12.15;69.71;99447.47;6260189;22;20002;-93
2024/04/27 02:36:58;;;;;;;6.07;3.22;;;;;;;11.97;69.97;99435.41;6260309;22;19995;-94
2024/04/27 02:39:24;;;;;;;3.90;3.30;;;;;;;12.11;69.57;99446.41;6300702;22;20002;-94
2024/04/27 02:41:50;;;;;;;6.22;3.50;;;;;;;12.07;69.67;99446.16;6299250;22;19987;-92
2024/04/27 02:44:16;;;;;;;5.03;3.10;;;;;;;12.17;68.98;99434.50;6259882;22;20414;-95
2024/04/27 02:46:42;;;;;;;3.38;3.00;;;;;;;12.23;69.35;99448.81;6300120;22;20079;-95
2024/04/27 02:49:08;;;;;;;7.78;3.53;;;;;;;12.20;69.58;99460.97;6260423;22;20003;-95
2024/04/27 02:51:33;;;;;;;3.78;3.00;;;;;;;12.37;69.06;99481.38;6260332;22;19987;-94
2024/04/27 02:53:59;;;;;;;6.50;3.17;;;;;;;12.22;69.19;99458.81;6260160;22;19995;-94
2024/04/27 02:56:25;;;;;;;5.22;3.00;;;;;;;12.21;70.09;99472.56;6259644;22;19987;-94
2024/04/27 02:58:51;;;;;;;4.80;3.17;;;;;;;12.13;70.21;99460.44;6299607;22;19996;-94
2024/04/27 03:01:16;;;;;;;7.43;3.40;;;;;;;12.15;69.67;99460.97;6259514;22;19991;-94
2024/04/27 03:03:44;;;;;;;4.38;3.17;;;;;;;12.15;70.22;99479.88;6260826;22;20002;-94
2024/04/27 03:06:11;;;;;;;7.13;2.90;;;;;;;12.18;69.72;99487.44;6262024;22;19991;-94
2024/04/27 03:08:37;;;;;;;4.32;3.15;;;;;;;12.03;70.65;99480.19;6300964;22;20295;-94
2024/04/27 03:11:05;;;;;;;5.07;3.25;;;;;;;12.08;70.21;99474.78;6260299;22;19991;-94
2024/04/27 03:13:32;;;;;;;4.60;3.38;;;;;;;12.18;70.20;99490.13;6300292;22;19995;-94
2024/04/27 03:15:57;;;;;;;5.97;3.38;;;;;;;12.06;70.67;99481.53;6300902;22;19999;-95
2024/04/27 03:18:24;;;;;;;5.15;2.90;;;;;;;12.13;70.32;99492.84;6261354;22;20066;-96
2024/04/27 03:20:49;;;;;;;6.30;3.00;;;;;;;12.30;69.70;99501.38;6300651;22;19991;-94
2024/04/27 03:23:15;;;;;;;3.50;2.67;;;;;;;12.22;69.71;99490.38;6261430;22;20414;-93
2024/04/27 03:25:41;;;;;;;8.07;3.03;;;;;;;12.31;70.04;99503.03;6260474;22;20006;-93
2024/04/27 03:28:06;;;;;;;4.18;2.92;;;;;;;12.30;69.90;99500.59;6259953;22;20446;-95
2024/04/27 03:30:34;;;;;;;3.50;2.90;;;;;;;12.18;69.97;99506.31;6259493;22;19991;-94
2024/04/27 03:33:00;;;;;;;5.93;2.90;;;;;;;12.27;70.00;99528.97;6259791;22;19999;-93
2024/04/27 03:35:26;;;;;;;5.90;3.05;;;;;;;12.04;69.84;99500.69;6260630;22;19991;-94
2024/04/27 03:37:52;;;;;;;7.63;3.50;;;;;;;12.25;69.52;99533.03;6259849;22;19995;-94
2024/04/27 03:40:17;;;;;;;6.22;3.38;;;;;;;12.17;69.48;99502.00;6260670;22;19991;-94
2024/04/27 03:42:43;;;;;;;6.15;3.08;;;;;;;12.31;68.98;99516.53;6300113;22;19995;-95
2024/04/27 03:45:09;;;;;;;5.43;2.78;;;;;;;12.40;69.30;99513.25;6261675;22;20279;-94
2024/04/27 03:47:34;;;;;;;5.07;3.03;;;;;;;12.47;68.82;99508.34;6259773;22;20411;-94
2024/04/27 03:50:00;;;;;;;3.63;2.90;;;;;;;12.36;69.43;99498.69;6261300;22;20006;-94
2024/04/27 03:52:26;;;;;;;4.82;3.05;;;;;;;12.46;69.34;99529.16;6260661;22;19996;-94
2024/04/27 03:54:53;;;;;;;8.60;3.00;;;;;;;12.40;69.30;99524.06;6299676;22;19999;-93
2024/04/27 03:57:18;;;;;;;7.50;3.20;;;;;;;12.56;68.93;99532.91;6298577;22;20010;-93
2024/04/27 03:59:44;;;;;;;4.80;3.03;;;;;;;12.61;68.42;99528.25;6299711;22;20283;-94
2024/04/27 04:02:12;;;;;;;8.30;3.20;;;;;;;12.70;68.06;99534.72;6259770;22;20010;-93
2024/04/27 04:04:38;;;;;;;12.80;2.80;;;;;;;12.84;67.87;99543.00;6300196;22;20007;-93
2024/04/27 04:07:04;;;;;;;5.50;2.60;;;;;;;12.94;67.18;99544.84;6259155;22;20031;-95
2024/04/27 04:09:30;;;;;;;4.03;2.53;;;;;;;13.05;66.76;99546.41;6259713;22;20396;-94
2024/04/27 04:11:55;;;;;;;4.35;2.70;;;;;;;13.21;66.90;99555.19;6259902;22;19996;-93
2024/04/27 04:14:21;;;;;;;4.53;2.92;;;;;;;13.17;66.69;99529.00;6259974;22;20404;-95
2024/04/27 04:16:47;;;;;;;6.80;2.88;;;;;;;13.31;65.97;99535.44;6259438;22;20015;-95
2024/04/27 04:19:13;;;;;;;5.18;3.10;;;;;;;13.38;66.46;99556.75;6260135;22;20003;-94
2024/04/27 04:21:42;;;;;;;7.28;3.15;;;;;;;13.36;66.77;99557.00;6299449;22;20348;-95
2024/04/27 04:24:08;;;;;;;5.18;3.20;;;;;;;13.35;66.37;99550.00;6262125;22;19995;-93
2024/04/27 04:26:34;;;;;;;7.90;3.45;;;;;;;13.46;66.85;99562.34;6300397;22;20066;-92
2024/04/27 04:29:00;;;;;;;6.78;3.00;;;;;;;13.57;66.09;99567.66;6259027;22;20404;-93
2024/04/27 04:31:25;;;;;;;33.70;4.95;;;;;;;13.56;66.39;99575.00;6258721;22;20071;-94
2024/04/27 04:33:53;;;;;;;13.63;4.18;;;;;;;13.57;66.22;99565.75;6299976;22;19999;-93
2024/04/27 04:36:19;;;;;;;5.63;3.08;;;;;;;13.74;66.22;99566.19;6260241;22;20082;-95
2024/04/27 04:38:48;;;;;;;6.38;2.90;;;;;;;13.69;65.79;99555.38;6260292;22;19995;-94
2024/04/27 04:41:19;;;;;;;4.82;3.10;;;;;;;13.76;65.42;99552.38;6262698;22;19996;-94
2024/04/27 04:43:44;;;;;;;4.13;2.80;;;;;;;13.96;64.65;99567.59;6262882;22;20075;-96
2024/04/27 04:46:10;;;;;;;15.75;3.33;;;;;;;13.93;63.87;99551.94;6260248;22;20239;-94
2024/04/27 04:48:37;;;;;;;9.40;3.60;;;;;;;13.97;63.73;99555.69;6260208;22;19995;-94
2024/04/27 04:51:03;;;;;;;6.60;3.10;;;;;;;14.27;64.48;99595.16;6261755;22;19995;-94
2024/04/27 04:53:29;;;;;;;9.18;3.50;;;;;;;14.28;64.29;99591.38;6261719;22;20010;-94
2024/04/27 04:55:55;;;;;;;5.15;2.90;;;;;;;14.31;63.00;99579.13;6260639;22;20012;-95
2024/04/27 04:58:21;;;;;;;8.25;3.05;;;;;;;14.29;61.36;99571.28;6261632;22;20295;-93
2024/04/27 05:00:46;;;;;;;8.52;2.60;;;;;;;14.37;61.07;99578.00;6260161;22;20426;-94
2024/04/27 05:03:12;;;;;;;3.80;2.55;;;;;;;14.42;60.74;99582.53;6260307;22;19999;-94
2024/04/27 05:05:38;;;;;;;3.67;2.60;;;;;;;14.43;60.35;99570.63;6260076;22;20387;-95
2024/04/27 05:08:05;;;;;;;5.72;2.35;;;;;;;14.58;60.23;99581.28;6261359;22;19995;-94
2024/04/27 05:10:32;;;;;;;4.15;2.92;;;;;;;14.54;60.90;99572.91;6261415;22;20010;-93
2024/04/27 05:12:57;;;;;;;7.82;3.15;;;;;;;14.78;61.55;99598.41;6300780;22;20066;-93
2024/04/27 05:15:23;;;;;;;5.53;2.90;;;;;;;14.73;61.46;99578.41;6260597;22;19995;-93
2024/04/27 05:17:49;;;;;;;7.45;2.83;;;;;;;14.78;60.46;99563.19;6302385;22;20421;-94
2024/04/27 05:20:17;;;;;;;8.13;4.00;;;;;;;14.73;65.66;99572.16;6260669;22;19995;-95
2024/04/27 05:22:44;;;;;;;7.43;4.10;;;;;;;14.89;65.05;99586.31;6262600;22;19991;-94
2024/04/27 05:25:09;;;;;;;11.50;4.57;;;;;;;14.71;67.60;99585.19;6300600;22;20071;-94
2024/04/27 05:27:38;;;;;;;8.93;4.25;;;;;;;14.77;66.68;99588.66;6261653;22;20364;-94
2024/04/27 05:30:04;;;;;;;7.78;5.03;;;;;;;14.85;66.48;99596.13;6262795;22;19999;-95
2024/04/27 05:32:31;;;;;;;13.02;4.85;;;;;;;14.81;66.90;99576.13;6302134;22;19991;-94
2024/04/27 05:34:57;;;;;;;11.48;4.38;;;;;;;14.92;66.41;99588.44;6262286;22;20021;-95
2024/04/27 05:37:25;;;;;;;8.48;5.00;;;;;;;14.99;65.86;99596.25;6263043;22;20010;-95
2024/04/27 05:39:51;;;;;;;7.85;4.25;;;;;;;14.98;66.02;99589.19;6262516;22;19991;-94
2024/04/27 05:42:17;;;;;;;10.35;4.80;;;;;;;14.97;66.54;99595.72;6303093;22;20002;-95
2024/04/27 05:44:45;;;;;;;15.95;4.68;;;;;;;15.00;66.25;99614.91;6261700;22;19995;-94
2024/04/27 05:47:17;;;;;;;15.27;7.03;;;;;;;15.09;65.39;99596.91;6303591;22;20003;-94
2024/04/27 05:49:46;;;;;;;16.20;6.47;;;;;;;15.08;65.18;99586.34;6264420;22;20280;-95
2024/04/27 05:52:11;;;;;;;13.52;4.90;;;;;;;15.08;63.95;99592.56;6264088;22;19995;-94
2024/04/27 05:54:38;;;;;;;13.55;5.82;;;;;;;15.35;64.64;99624.44;6260612;22;20418;-95
2024/04/27 05:57:04;;;;;;;12.90;5.85;;;;;;;15.49;64.03;99615.56;6263393;22;20015;-95
2024/04/27 05:59:30;;;;;;;14.38;6.47;;;;;;;15.64;64.26;99637.03;6260856;22;19995;-94
2024/04/27 06:02:31;;;;;;;9.63;4.65;;;;;;;15.68;62.04;99623.69;6261658;22;20482;-94
2024/04/27 06:08:47;;;;;;;6.35;3.80;;;;;;;16.25;59.00;99618.94;6362621;22;20069;-95
2024/04/27 06:11:19;;;;;;;6.38;3.00;;;;;;;16.48;57.04;99630.75;6307477;22;20377;-93
2024/04/27 06:14:16;;;;;;;6.18;2.50;;;;;;;16.56;55.49;99602.84;6265778;22;19995;-94
2024/04/27 06:16:42;;;;;;;4.50;2.13;;;;;;;16.81;54.04;99606.19;6343223;22;20000;-94
2024/04/27 06:19:08;;;;;;;5.15;3.20;;;;;;;17.04;53.66;99626.09;6264760;22;20074;-95
2024/04/27 06:21:36;;;;;;;6.53;2.97;;;;;;;17.20;53.20;99623.84;6264024;22;20348;-95
2024/04/27 06:24:05;;;;;;;6.40;3.30;;;;;;;17.29;53.02;99632.09;6262958;22;19995;-95
2024/04/27 06:26:33;;;;;;;6.60;2.83;;;;;;;17.40;52.81;99644.34;6264394;22;20478;-93
2024/04/27 06:29:00;;;;;;;9.70;3.97;;;;;;;17.43;52.41;99645.66;6306549;22;19995;-96
2024/04/27 06:31:27;;;;;;;4.53;2.50;;;;;;;17.34;53.28;99640.94;6263385;22;20006;-94
2024/04/27 06:33:58;;;;;;;6.63;2.53;;;;;;;17.04;53.66;99625.31;6304955;22;19987;-94
2024/04/27 06:36:24;;;;;;;4.90;2.40;;;;;;;17.15;53.68;99623.97;6264578;22;19991;-93
2024/04/27 06:38:52;;;;;;;5.00;2.78;;;;;;;17.27;53.26;99634.31;6261304;22;20255;-94
2024/04/27 06:41:18;;;;;;;5.43;2.85;;;;;;;17.27;53.42;99615.28;6301601;22;19995;-96
2024/04/27 06:43:46;;;;;;;5.65;2.38;;;;;;;17.48;53.14;99632.72;6262041;22;20117;-94
2024/04/27 06:46:16;;;;;;;10.95;3.20;;;;;;;17.68;52.46;99619.72;6262033;22;20356;-94
2024/04/27 06:48:42;;;;;;;5.47;2.53;;;;;;;17.90;51.91;99633.38;6302419;22;20006;-95
2024/04/27 06:51:27;;;;;;;3.90;2.70;;;;;;;17.93;51.19;99621.88;6263139;22;20003;-95
2024/04/27 06:53:56;;;;;;;5.88;2.50;;;;;;;18.38;50.52;99626.41;6267587;22;20036;-94
2024/04/27 06:56:23;;;;;;;5.63;2.50;;;;;;;18.67;49.08;99636.78;6159559;23;19997;-94
2024/04/27 06:58:49;;;;;;;4.60;2.05;;;;;;;19.01;48.82;99659.88;6122361;23;20047;-93
2024/04/27 07:01:18;;;;;;;5.15;2.40;;;;;;;19.08;48.17;99641.09;6158378;23;19997;-94
2024/04/27 07:03:48;;;;;;;6.53;2.63;;;;;;;19.22;47.58;99643.72;6121099;23;20008;-95
2024/04/27 07:06:13;;;;;;;6.10;2.67;;;;;;;19.52;47.34;99666.53;6123244;23;20520;-93
2024/04/27 07:08:43;;;;;;;7.20;2.88;;;;;;;19.45;47.74;99641.63;6094043;23;20002;-94
2024/04/27 07:11:09;;;;;;;3.45;2.42;;;;;;;19.71;46.97;99649.03;6151584;23;19997;-96
2024/04/27 07:13:34;;;;;;;6.00;3.00;;;;;;;19.55;46.29;99645.97;6114066;23;20001;-92
2024/04/27 07:22:45;;;;;;;6.07;2.13;;;;;;;19.85;45.56;99649.66;6072062;23;20006;-95
2024/04/27 07:25:10;;;;;;;12.70;2.60;;;;;;;19.93;45.44;99646.13;6076027;23;20239;-95
2024/04/27 07:27:39;;;;;;;5.10;2.60;;;;;;;20.26;44.87;99664.69;6150773;22;20004;-94
2024/04/27 07:30:14;;;;;;;4.93;2.00;;;;;;;20.12;45.13;99645.75;6210431;22;20003;-94
2024/04/27 07:32:48;;;;;;;11.77;6.40;;;;;;;20.34;45.10;99674.81;6213596;22;20008;-96
2024/04/27 07:35:25;;;;;;;25.30;20.42;;;;;;;20.22;44.49;99647.34;6288403;22;20074;-96
2024/04/27 07:37:53;;;;;;;4.72;2.60;;;;;;;20.16;44.92;99643.97;6210634;22;19988;-95
2024/04/27 07:40:20;;;;;;;6.68;4.43;;;;;;;20.19;44.64;99646.06;6246037;22;20119;-95
2024/04/27 07:42:51;;;;;;;7.60;2.28;;;;;;;20.12;45.03;99650.41;6206597;22;19997;-93
2024/04/27 07:45:22;;;;;;;3.47;2.13;;;;;;;20.13;44.37;99641.91;6205705;22;20017;-93
2024/04/27 07:47:48;;;;;;;4.40;2.92;;;;;;;20.08;45.62;99644.00;6243265;22;20069;-93
2024/04/27 07:50:19;;;;;;;372.52;311.15;;;;;;;20.18;46.61;99660.84;6205732;22;20008;-93
2024/04/27 07:52:47;;;;;;;5.82;3.55;;;;;;;19.98;46.95;99653.34;6246314;22;19992;-95
2024/04/27 07:55:28;;;;;;;;;;;;;;;;;;;;;
2024/04/27 07:57:57;;;;;;;6.38;3.30;;;;;;;19.98;46.49;99665.09;6249466;22;19997;-93
2024/04/27 08:00:23;;;;;;;5.28;3.67;;;;;;;20.09;45.15;99654.63;6203900;22;19992;-94
2024/04/27 08:04:00;;;;;;;;;;;;;;;;;;;;;
2024/04/27 08:06:28;;;;;;;4.70;2.47;;;;;;;20.11;44.93;99663.28;6170370;23;20101;-93
2024/04/27 08:08:53;;;;;;;2.97;2.10;;;;;;;20.03;42.85;99650.44;6185318;23;19998;-93
2024/04/27 08:11:19;;;;;;;2.45;1.73;;;;;;;20.20;41.31;99663.28;6198031;23;19997;-94
2024/04/27 08:13:48;;;;;;;2.50;2.00;;;;;;;20.23;42.76;99662.59;6196938;23;20403;-95
2024/04/27 08:16:40;;;;;;;3.70;2.00;;;;;;;20.18;41.74;99655.38;6157819;23;20437;-95
2024/04/27 08:19:09;;;;;;;;;;;;;;;20.32;41.36;99673.53;6195409;23;19997;-93
2024/04/27 08:21:40;;;;;;;5.45;2.67;;;;;;;20.20;42.33;99663.28;6159125;23;19936;-95
2024/04/27 08:24:32;;;;;;;4.60;1.80;;;;;;;20.12;42.15;99653.16;6196869;23;19985;-93
2024/04/27 08:27:06;;;;;;;5.65;2.03;;;;;;;20.18;42.00;99668.25;6235196;23;19993;-93
2024/04/27 08:29:32;;;;;;;2.85;2.22;;;;;;;20.07;42.38;99659.59;6162250;22;20017;-92
2024/04/27 08:32:08;;;;;;;;;;;;;;;;;;;;;
2024/04/27 08:34:42;;;;;;;3.88;2.17;;;;;;;20.24;42.56;99647.03;6247788;22;19996;-95
2024/04/27 08:37:11;;;;;;;3.47;1.88;;;;;;;20.36;42.02;99644.41;6209422;22;19996;-94
2024/04/27 08:39:36;;;;;;;3.95;2.28;;;;;;;20.54;41.88;99669.75;6206438;22;20389;-95
2024/04/27 08:42:05;;;;;;;4.55;2.10;;;;;;;20.49;41.86;99673.47;6244583;22;19985;-96
2024/04/27 08:44:31;;;;;;;2.95;1.75;;;;;;;20.28;41.72;99645.25;6209172;22;20033;-95
2024/04/27 08:47:03;;;;;;;4.10;2.10;;;;;;;20.38;42.22;99647.63;6207040;22;19996;-93
2024/04/27 08:49:29;;;;;;;3.33;1.83;;;;;;;20.44;41.31;99659.16;6206515;22;20049;-94
2024/04/27 08:51:56;;;;;;;3.17;1.75;;;;;;;20.25;40.94;99635.72;6245848;22;20008;-93
2024/04/27 08:54:22;;;;;;;9.48;3.10;;;;;;;20.18;42.53;99638.19;6209152;22;19999;-94
2024/04/27 08:56:58;;;;;;;3.60;2.10;;;;;;;20.34;41.45;99657.59;6209116;22;20069;-94
2024/04/27 08:59:24;;;;;;;5.35;2.10;;;;;;;20.19;42.24;99646.06;6282397;22;20282;-94
2024/04/27 09:01:59;;;;;;;6.32;2.55;;;;;;;20.21;43.24;99647.66;6244837;22;20008;-93
2024/04/27 09:04:27;;;;;;;5.82;2.53;;;;;;;20.15;42.41;99647.84;6246971;22;19996;-92
2024/04/27 09:07:05;;;;;;;4.18;2.00;;;;;;;19.97;42.59;99640.81;6207423;22;20004;-93
2024/04/27 09:09:51;;;;;;;1.98;1.40;;;;;;;20.15;41.01;99645.13;6298361;22;19996;-93
2024/04/27 09:12:22;;;;;;;3.60;1.80;;;;;;;20.32;41.50;99643.47;6267037;22;19999;-93
2024/04/27 09:14:51;;;;;;;7.88;3.58;;;;;;;20.40;42.63;99645.38;6301223;22;19999;-94
2024/04/27 09:17:33;;;;;;;3.33;2.42;;;;;;;20.53;41.58;99643.53;6303034;22;19999;-95
2024/04/27 09:20:35;;;;;;;17.05;10.13;;;;;;;20.52;40.62;99652.88;6266592;22;20010;-92
2024/04/27 09:23:16;;;;;;;;;;;;;;;;;;;;;
2024/04/27 09:25:56;;;;;;;6.85;2.13;;;;;;;20.43;40.86;99650.16;6309076;22;20055;-92
2024/04/27 09:28:52;;;;;;;4.13;1.80;;;;;;;20.59;40.37;99650.47;6308887;22;20003;-95
2024/04/27 09:31:28;;;;;;;;;;;;;;;;;;;;;
2024/04/27 09:33:57;;;;;;;4.53;1.90;;;;;;;20.57;41.28;99644.50;6309836;22;20307;-93
2024/04/27 09:36:36;;;;;;;3.30;2.22;;;;;;;20.75;41.07;99645.22;6264741;22;20051;-94
2024/04/27 09:39:08;;;;;;;2.72;1.88;;;;;;;20.67;40.28;99624.16;6302763;22;20000;-92
2024/04/27 09:42:05;;;;;;;7.05;2.30;;;;;;;20.98;39.89;99634.81;6262361;22;20023;-94
2024/04/27 09:44:55;;;;;;;2.63;1.67;;;;;;;21.21;39.11;99649.00;6267948;22;20356;-93
2024/04/27 09:48:02;;;;;;;;;;;;;;;;;;;;;
2024/04/27 09:50:30;;;;;;;2.20;1.85;;;;;;;21.02;39.86;99627.50;6314210;22;19995;-94
2024/04/27 09:53:05;;;;;;;4.22;1.63;;;;;;;21.10;39.72;99648.56;6263202;22;20351;-95
2024/04/27 09:55:34;;;;;;;2.80;1.73;;;;;;;21.08;39.57;99626.19;6302849;22;19995;-94
2024/04/27 09:58:08;;;;;;;2.55;1.70;;;;;;;21.06;38.34;99628.44;6263499;22;19995;-94
2024/04/27 10:00:37;;;;;;;2.08;1.63;;;;;;;21.19;38.68;99619.19;6267940;22;19991;-93
2024/04/27 10:03:13;;;;;;;3.28;1.80;;;;;;;21.40;38.45;99632.09;6263840;22;20066;-94
2024/04/27 10:05:38;;;;;;;2.83;1.80;;;;;;;21.47;38.58;99615.13;6268484;22;20007;-94
2024/04/27 10:08:07;;;;;;;4.13;2.00;;;;;;;21.59;38.30;99610.50;6261448;22;20272;-93
2024/04/27 10:10:37;;;;;;;2.85;1.90;;;;;;;21.70;38.51;99621.06;6262345;22;20066;-93
2024/04/27 10:13:14;;;;;;;2.88;1.90;;;;;;;21.95;38.66;99630.94;6302599;22;20003;-95
2024/04/27 10:15:43;;;;;;;3.58;2.10;;;;;;;21.80;37.12;99615.16;6308641;22;20005;-93
2024/04/27 10:18:14;;;;;;;2.55;1.92;;;;;;;21.99;37.86;99629.13;6300757;22;19988;-96
2024/04/27 10:20:39;;;;;;;1.93;1.60;;;;;;;22.23;36.39;99640.53;6303586;22;19991;-92
2024/04/27 10:23:15;;;;;;;3.22;1.65;;;;;;;22.00;35.68;99617.03;6339965;22;20231;-94
2024/04/27 10:25:43;;;;;;;3.83;1.70;;;;;;;22.13;36.09;99622.56;6263108;22;20007;-93
2024/04/27 10:28:08;;;;;;;8.63;2.30;;;;;;;22.11;36.58;99616.59;6260784;22;20006;-92
2024/04/27 10:30:34;;;;;;;2.75;1.70;;;;;;;22.28;36.36;99615.63;6261570;22;20000;-93
2024/04/27 10:33:05;;;;;;;7.85;1.92;;;;;;;22.29;36.56;99626.28;6301241;22;19987;-92
2024/04/27 10:35:34;;;;;;;4.85;1.77;;;;;;;22.31;36.07;99598.50;6266015;22;20006;-93
2024/04/27 10:38:06;;;;;;;2.40;1.70;;;;;;;22.35;35.79;99613.13;6303451;22;20100;-93
2024/04/27 10:40:32;;;;;;;4.00;1.90;;;;;;;22.23;36.42;99594.72;6261839;22;19992;-95
2024/04/27 10:42:58;;;;;;;3.15;2.03;;;;;;;22.45;36.28;99612.66;6261522;22;19999;-93
2024/04/27 10:45:39;;;;;;;3.20;1.58;;;;;;;22.45;36.43;99620.09;6262217;22;20028;-94
2024/04/27 10:48:16;;;;;;;3.88;1.83;;;;;;;22.46;37.30;99611.53;6348473;22;19991;-93
2024/04/27 10:50:48;;;;;;;1.90;1.40;;;;;;;22.44;36.17;99582.84;6301130;22;19995;-93
2024/04/27 10:53:29;;;;;;;;;;;;;;;;;;;;;
2024/04/27 10:56:16;;;;;;;;;;;;;;;;;;;;;
2024/04/27 10:58:47;;;;;;;2.72;1.80;;;;;;;22.16;36.06;99595.25;6353415;22;20406;-93
2024/04/27 11:01:13;;;;;;;2.08;1.42;;;;;;;22.20;35.84;99595.34;6303457;22;19995;-94
2024/04/27 11:03:41;;;;;;;1.73;1.20;;;;;;;22.26;35.15;99605.00;6341643;22;19996;-93
2024/04/27 11:06:14;;;;;;;3.65;1.80;;;;;;;22.28;35.49;99610.94;6303347;22;20039;-93
2024/04/27 11:08:42;;;;;;;1.88;1.40;;;;;;;22.18;34.85;99598.47;6259294;22;20011;-96
2024/04/27 11:14:05;;;;;;;3.08;1.58;;;;;;;22.47;33.82;99588.44;6299175;22;20010;-93
2024/04/27 11:16:32;;;;;;;2.15;1.50;;;;;;;22.65;33.06;99610.97;6257337;22;20260;-94
2024/04/27 11:19:08;;;;;;;;;;;;;;;;;;;;;
2024/04/27 11:21:34;;;;;;;4.38;1.83;;;;;;;22.77;32.83;99608.22;6298875;22;19996;-94
2024/04/27 11:24:06;;;;;;;3.05;1.50;;;;;;;22.49;32.69;99583.41;6331922;22;20300;-94
2024/04/27 11:26:32;;;;;;;3.47;2.00;;;;;;;22.66;32.75;99592.53;6332442;22;20392;-92
2024/04/27 11:28:57;;;;;;;3.08;2.03;;;;;;;22.58;32.72;99577.81;6252952;22;20007;-94
2024/04/27 11:31:26;;;;;;;2.45;1.65;;;;;;;22.60;32.05;99579.06;6252480;22;20007;-94
2024/04/27 11:34:08;;;;;;;1.67;1.23;;;;;;;22.52;31.94;99584.69;6250288;22;20329;-94
2024/04/27 11:36:39;;;;;;;2.03;1.40;;;;;;;22.56;32.44;99577.38;6242406;22;20065;-92
2024/04/27 11:39:06;;;;;;;2.67;1.10;;;;;;;22.57;32.81;99585.22;6205251;22;19996;-93
2024/04/27 11:41:32;;;;;;;2.38;1.40;;;;;;;22.43;32.98;99590.25;6205114;22;20011;-94
2024/04/27 11:43:58;;;;;;;3.90;1.40;;;;;;;22.22;32.91;99581.31;6202513;22;19993;-95
2024/04/27 11:46:26;;;;;;;4.28;1.60;;;;;;;22.20;33.37;99582.47;6204322;22;20129;-93
2024/04/27 11:48:57;;;;;;;7.93;1.98;;;;;;;22.09;33.17;99575.81;6203666;22;20400;-93
2024/04/27 11:51:23;;;;;;;1.95;1.38;;;;;;;22.26;32.90;99566.59;6245697;22;20064;-94
2024/04/27 11:53:48;;;;;;;2.97;1.55;;;;;;;22.23;32.86;99569.22;6203434;22;20003;-93
2024/04/27 11:56:14;;;;;;;3.80;1.70;;;;;;;22.26;33.17;99558.38;6203827;22;19988;-92
2024/04/27 11:58:42;;;;;;;2.25;1.60;;;;;;;22.44;32.47;99560.91;6162888;22;19988;-93
2024/04/27 12:01:11;;;;;;;1.90;1.40;;;;;;;22.67;32.44;99573.00;6166527;22;19999;-92
2024/04/27 12:03:37;;;;;;;3.75;1.67;;;;;;;22.72;32.16;99582.94;6205795;22;20009;-94
2024/04/27 12:06:12;;;;;;;1.45;1.30;;;;;;;22.60;32.26;99550.84;6245911;22;20067;-95
2024/04/27 12:08:39;;;;;;;2.70;1.52;;;;;;;22.82;32.28;99560.50;6258502;22;20015;-93